createdAt,value
2022-09-12T00:19:42.826Z,96.3
2022-09-12T00:39:42.864Z,96.2
2022-09-12T00:59:42.832Z,96
2022-09-12T01:19:42.661Z,95.8
2022-09-12T01:39:42.660Z,95.9
2022-09-12T01:59:42.588Z,96.4
2022-09-12T02:19:42.533Z,95.4
2022-09-12T02:39:45.265Z,95.2
2022-09-12T02:59:42.469Z,94.9
2022-09-12T03:19:42.449Z,95.4
2022-09-12T03:39:42.418Z,96.2
2022-09-12T03:59:42.364Z,96.1
2022-09-12T04:19:42.302Z,96.3
2022-09-12T04:39:42.391Z,96.4
2022-09-12T04:59:42.225Z,96.5
2022-09-12T05:19:42.172Z,96.8
2022-09-12T05:39:42.213Z,96
2022-09-12T05:59:42.134Z,85.4
2022-09-12T06:19:42.030Z,75.1
2022-09-12T06:39:42.083Z,67.4
2022-09-12T06:59:41.979Z,73.2
2022-09-12T07:19:41.966Z,70.6
2022-09-12T07:39:41.870Z,67.5
2022-09-12T08:19:41.754Z,59.2
2022-09-12T08:39:41.719Z,56.4
2022-09-12T08:59:41.668Z,53.6
2022-09-12T09:19:41.669Z,55.1
2022-09-12T09:39:41.588Z,52.3
2022-09-12T10:59:41.427Z,58.7
2022-09-12T11:19:41.317Z,59.2
2022-09-12T11:39:41.326Z,59.1
2022-09-12T11:59:48.287Z,50.2
2022-09-12T12:19:41.145Z,48.7
2022-09-12T12:39:41.133Z,52.2
2022-09-12T13:19:40.989Z,50.4
2022-09-12T13:59:40.915Z,55.7
2022-09-12T14:39:40.821Z,56.9
2022-09-12T14:59:40.768Z,57.3
2022-09-12T15:19:40.716Z,56.1
2022-09-12T15:59:40.625Z,67.6
2022-09-12T16:19:40.712Z,70.8
2022-09-12T16:39:40.691Z,75.3
2022-09-12T16:59:40.479Z,78.3
2022-09-12T17:19:40.374Z,80.1
2022-09-12T17:59:40.274Z,83.7
2022-09-12T18:19:50.323Z,85.5
2022-09-12T18:39:40.223Z,85.8
2022-09-12T18:59:40.254Z,87.8
2022-09-12T19:19:40.717Z,87.8
2022-09-12T19:39:40.175Z,87.9
2022-09-12T19:59:40.139Z,90.5
2022-09-12T20:19:40.092Z,91.4
2022-09-12T20:39:40.030Z,90.5
2022-09-12T20:59:39.953Z,92.7
2022-09-12T21:19:39.889Z,92.9
2022-09-12T21:39:39.840Z,93.5
2022-09-12T21:59:39.978Z,93.1
2022-09-12T22:19:39.730Z,92.6
2022-09-12T22:39:39.937Z,93.7
2022-09-12T22:59:39.731Z,94.3
2022-09-12T23:19:39.589Z,94
2022-09-12T23:39:39.590Z,94.5
2022-09-12T23:59:39.510Z,94.3
